createdAt,value
2023-05-05T00:00:08.914Z,25.56
2023-05-05T00:02:36.785Z,25.53
2023-05-05T00:05:04.729Z,25.51
2023-05-05T00:07:35.296Z,25.55
2023-05-05T00:10:02.839Z,25.52
2023-05-05T00:12:36.623Z,25.50
2023-05-05T00:15:04.559Z,25.50
2023-05-05T00:17:34.561Z,25.50
2023-05-05T00:20:02.157Z,25.50
2023-05-05T00:22:32.873Z,25.50
2023-05-05T00:25:01.657Z,25.51
2023-05-05T00:27:32.030Z,25.50
2023-05-05T00:29:59.636Z,25.50
2023-05-05T00:32:27.406Z,25.51
2023-05-05T00:34:55.140Z,25.49
2023-05-05T00:37:23.172Z,25.49
2023-05-05T00:39:50.913Z,25.50
2023-05-05T00:42:21.377Z,25.49
2023-05-05T00:44:48.908Z,25.51
2023-05-05T00:47:17.197Z,25.47
2023-05-05T00:49:47.904Z,25.45
2023-05-05T00:52:18.076Z,25.46
2023-05-05T00:54:45.793Z,25.46
2023-05-05T00:57:17.258Z,25.43
2023-05-05T00:59:55.968Z,25.43
2023-05-05T01:02:23.633Z,25.45
2023-05-05T01:04:54.166Z,25.46
2023-05-05T01:07:43.321Z,25.49
2023-05-05T01:10:23.995Z,25.51
2023-05-05T01:13:15.741Z,25.50
2023-05-05T01:16:10.510Z,25.54
2023-05-05T01:18:46.450Z,25.54
2023-05-05T01:21:15.916Z,25.55
2023-05-05T01:23:59.404Z,25.56
2023-05-05T01:26:47.999Z,25.54
2023-05-05T01:29:41.240Z,25.55
2023-05-05T01:32:14.898Z,25.57
2023-05-05T01:34:53.141Z,25.57
2023-05-05T01:37:30.303Z,25.60
2023-05-05T01:40:06.701Z,25.57
2023-05-05T01:42:41.244Z,25.59
2023-05-05T01:45:15.622Z,25.59
2023-05-05T01:47:46.989Z,25.71
2023-05-05T01:50:18.372Z,25.64
2023-05-05T01:52:53.766Z,25.69
2023-05-05T01:55:25.513Z,25.68
2023-05-05T01:57:56.890Z,25.67
2023-05-05T02:00:27.878Z,25.67
2023-05-05T02:02:59.977Z,25.65
2023-05-05T02:05:36.555Z,25.66
2023-05-05T02:08:06.550Z,25.64
2023-05-05T02:10:40.564Z,25.64
2023-05-05T02:13:10.494Z,25.68
2023-05-05T02:15:42.664Z,25.64
2023-05-05T02:18:11.469Z,25.69
2023-05-05T02:20:39.993Z,25.66
2023-05-05T02:23:10.969Z,25.66
2023-05-05T02:25:50.484Z,25.58
2023-05-05T02:28:26.119Z,25.56
2023-05-05T02:30:59.406Z,25.49
2023-05-05T02:33:32.607Z,25.45
2023-05-05T02:36:11.723Z,25.42
2023-05-05T02:38:54.517Z,25.40
2023-05-05T02:41:28.421Z,25.36
2023-05-05T02:44:00.773Z,25.35
2023-05-05T02:46:31.043Z,25.36
2023-05-05T02:48:59.776Z,25.35
2023-05-05T02:51:33.653Z,25.34
2023-05-05T02:54:07.989Z,25.31
2023-05-05T02:56:43.070Z,25.29
2023-05-05T02:59:16.727Z,25.28
2023-05-05T03:02:03.412Z,25.30
2023-05-05T03:04:45.934Z,25.26
2023-05-05T03:07:23.770Z,25.24
2023-05-05T03:09:56.201Z,25.24
2023-05-05T03:12:28.964Z,25.22
2023-05-05T03:15:08.666Z,25.22
2023-05-05T03:17:39.673Z,25.20
2023-05-05T03:20:08.687Z,25.19
2023-05-05T03:22:43.201Z,25.21
2023-05-05T03:25:13.999Z,25.24
2023-05-05T03:27:42.049Z,25.22
2023-05-05T03:30:13.444Z,25.20
2023-05-05T03:32:48.437Z,25.23
2023-05-05T03:35:21.190Z,25.19
2023-05-05T03:37:51.379Z,25.20
2023-05-05T03:40:19.336Z,25.19
2023-05-05T03:42:50.499Z,25.17
2023-05-05T03:45:18.238Z,25.18
2023-05-05T03:47:46.037Z,25.15
2023-05-05T03:50:13.647Z,25.17
2023-05-05T03:52:46.535Z,25.16
2023-05-05T03:55:14.066Z,25.14
2023-05-05T03:57:46.015Z,25.13
2023-05-05T04:00:16.787Z,25.12
2023-05-05T04:02:47.216Z,25.13
2023-05-05T04:05:19.905Z,25.11
2023-05-05T04:07:47.801Z,25.12
2023-05-05T04:10:16.647Z,25.12
2023-05-05T04:12:44.471Z,25.11
2023-05-05T04:15:12.371Z,25.10
2023-05-05T04:17:43.698Z,25.14
2023-05-05T04:20:13.568Z,25.13
2023-05-05T04:22:43.888Z,25.15
2023-05-05T04:25:14.184Z,25.16
2023-05-05T04:27:44.292Z,25.10
2023-05-05T04:30:15.343Z,25.13
2023-05-05T04:32:46.539Z,25.15
2023-05-05T04:35:16.470Z,25.16
2023-05-05T04:37:44.598Z,25.16
2023-05-05T04:40:15.565Z,25.19
2023-05-05T04:42:43.198Z,25.18
2023-05-05T04:45:17.772Z,25.18
2023-05-05T04:47:46.606Z,25.20
2023-05-05T04:50:16.996Z,25.22
2023-05-05T04:52:47.652Z,25.21
2023-05-05T04:55:20.553Z,25.22
2023-05-05T04:57:49.331Z,25.22
2023-05-05T05:00:22.334Z,25.22
2023-05-05T05:02:49.962Z,25.20
2023-05-05T05:05:20.077Z,25.20
2023-05-05T05:07:48.069Z,25.23
2023-05-05T05:10:18.352Z,25.22
2023-05-05T05:12:48.062Z,25.20
2023-05-05T05:15:18.784Z,25.20
2023-05-05T05:17:48.928Z,25.26
2023-05-05T05:20:20.002Z,25.25
2023-05-05T05:22:57.505Z,25.24
2023-05-05T05:25:27.776Z,25.26
2023-05-05T05:28:08.797Z,25.26
2023-05-05T05:30:43.019Z,25.27
2023-05-05T05:33:21.245Z,25.32
2023-05-05T05:35:52.266Z,25.34
2023-05-05T05:38:30.224Z,25.31
2023-05-05T05:41:07.713Z,25.40
2023-05-05T05:43:44.776Z,25.33
2023-05-05T05:46:15.987Z,25.34
2023-05-05T05:48:46.980Z,25.37
2023-05-05T05:51:14.806Z,25.40
2023-05-05T05:53:50.036Z,25.45
2023-05-05T05:56:27.096Z,25.40
2023-05-05T05:59:01.631Z,25.44
2023-05-05T06:01:37.753Z,25.52
2023-05-05T06:04:14.097Z,25.56
2023-05-05T06:06:46.978Z,25.54
2023-05-05T06:09:17.446Z,25.68
2023-05-05T06:11:47.198Z,25.79
2023-05-05T06:14:16.638Z,25.74
2023-05-05T06:16:46.384Z,25.75
2023-05-05T06:19:18.286Z,25.87
2023-05-05T06:21:52.341Z,26.15
2023-05-05T06:24:23.372Z,26.57
2023-05-05T06:26:53.362Z,26.91
2023-05-05T06:29:26.944Z,27.41
2023-05-05T06:32:01.380Z,27.60
2023-05-05T06:34:29.260Z,28.30
2023-05-05T06:37:04.324Z,28.43
2023-05-05T06:39:37.400Z,28.70
2023-05-05T06:42:16.021Z,28.59
2023-05-05T06:44:54.180Z,28.23
2023-05-05T06:47:36.089Z,28.19
2023-05-05T06:50:12.347Z,28.30
2023-05-05T06:52:50.032Z,28.12
2023-05-05T06:55:32.393Z,28.13
2023-05-05T06:58:14.017Z,28.05
2023-05-05T07:00:48.084Z,27.94
2023-05-05T07:03:35.748Z,27.99
2023-05-05T07:06:10.483Z,27.80
2023-05-05T07:08:46.778Z,27.85
2023-05-05T07:11:20.750Z,27.82
2023-05-05T07:13:49.490Z,27.89
2023-05-05T07:16:18.406Z,27.89
2023-05-05T07:18:56.987Z,27.81
2023-05-05T07:21:28.045Z,27.90
2023-05-05T07:23:59.025Z,28.10
2023-05-05T07:26:30.037Z,27.91
2023-05-05T07:29:10.415Z,27.88
2023-05-05T07:31:43.826Z,28.03
2023-05-05T07:34:25.559Z,28.32
2023-05-05T07:37:04.375Z,28.11
2023-05-05T07:39:42.248Z,28.32
2023-05-05T07:42:23.130Z,28.33
2023-05-05T07:44:56.553Z,28.25
2023-05-05T07:47:34.493Z,28.21
2023-05-05T07:50:10.825Z,27.71
2023-05-05T07:52:50.018Z,27.56
2023-05-05T07:55:26.597Z,27.42
2023-05-05T07:58:03.871Z,27.16
2023-05-05T08:00:39.663Z,27.09
2023-05-05T08:03:21.313Z,27.06
2023-05-05T08:05:51.619Z,26.99
2023-05-05T08:08:25.250Z,27.02
2023-05-05T08:10:53.473Z,26.85
2023-05-05T08:13:29.362Z,26.90
2023-05-05T08:16:06.075Z,26.93
2023-05-05T08:18:39.064Z,27.00
2023-05-05T08:21:08.119Z,26.72
2023-05-05T08:23:39.149Z,26.61
2023-05-05T08:26:20.996Z,26.73
2023-05-05T08:29:05.267Z,26.71
2023-05-05T08:31:37.256Z,26.73
2023-05-05T08:34:16.129Z,26.81
2023-05-05T08:36:49.191Z,26.71
2023-05-05T08:39:19.996Z,26.71
2023-05-05T08:41:50.586Z,26.66
2023-05-05T08:44:20.954Z,26.73
2023-05-05T08:46:53.448Z,26.92
2023-05-05T08:49:31.177Z,26.80
2023-05-05T08:52:07.813Z,26.61
2023-05-05T08:54:43.253Z,26.55
2023-05-05T08:57:19.383Z,26.50
2023-05-05T08:59:51.723Z,26.44
2023-05-05T09:02:25.629Z,26.37
2023-05-05T09:04:56.577Z,26.44
2023-05-05T09:07:30.499Z,26.48
2023-05-05T09:10:06.898Z,26.51
2023-05-05T09:12:38.429Z,26.53
2023-05-05T09:15:15.465Z,26.52
2023-05-05T09:17:46.025Z,26.44
2023-05-05T09:20:17.481Z,26.58
2023-05-05T09:22:54.110Z,26.60
2023-05-05T09:25:24.729Z,26.51
2023-05-05T09:27:55.170Z,26.47
2023-05-05T09:30:29.080Z,26.51
2023-05-05T09:33:02.502Z,26.43
2023-05-05T09:35:54.853Z,26.43
2023-05-05T09:38:27.447Z,26.41
2023-05-05T09:41:04.201Z,26.47
2023-05-05T09:43:54.968Z,26.51
2023-05-05T09:46:36.085Z,26.60
2023-05-05T09:49:25.670Z,26.71
2023-05-05T09:52:21.713Z,26.65
2023-05-05T09:54:58.562Z,26.51
2023-05-05T09:57:31.973Z,26.24
2023-05-05T10:00:08.843Z,26.36
2023-05-05T10:02:41.035Z,26.41
2023-05-05T10:05:18.555Z,26.48
2023-05-05T10:07:49.702Z,26.59
2023-05-05T10:10:27.535Z,26.61
2023-05-05T10:13:03.874Z,26.57
2023-05-05T10:15:37.432Z,26.55
2023-05-05T10:18:15.060Z,26.62
2023-05-05T10:20:49.340Z,26.62
2023-05-05T10:23:27.093Z,26.57
2023-05-05T10:26:03.898Z,26.68
2023-05-05T10:28:42.924Z,26.65
2023-05-05T10:31:26.418Z,26.61
2023-05-05T10:34:17.440Z,26.52
2023-05-05T10:36:45.800Z,26.63
2023-05-05T10:39:16.756Z,26.75
2023-05-05T10:41:46.573Z,26.76
2023-05-05T10:44:21.823Z,26.74
2023-05-05T10:46:54.870Z,26.70
2023-05-05T10:49:38.595Z,26.74
2023-05-05T10:52:15.392Z,26.69
2023-05-05T10:55:02.074Z,26.66
2023-05-05T10:57:41.525Z,26.60
2023-05-05T11:00:41.397Z,26.69
2023-05-05T11:03:18.465Z,26.77
2023-05-05T11:06:08.060Z,26.82
2023-05-05T11:08:43.001Z,26.83
2023-05-05T11:11:11.955Z,26.72
2023-05-05T11:13:43.937Z,26.67
2023-05-05T11:16:46.797Z,26.65
2023-05-05T11:19:44.919Z,26.63
2023-05-05T11:22:26.642Z,26.68
2023-05-05T11:24:56.471Z,26.72
2023-05-05T11:28:07.149Z,26.69
2023-05-05T11:30:55.159Z,26.78
2023-05-05T11:33:46.796Z,26.82
2023-05-05T11:36:20.080Z,26.82
2023-05-05T11:39:07.036Z,26.87
2023-05-05T11:42:11.193Z,26.84
2023-05-05T11:44:47.913Z,26.94
2023-05-05T11:47:15.397Z,26.94
2023-05-05T11:49:46.294Z,26.84
2023-05-05T11:52:17.822Z,26.86
2023-05-05T11:54:53.790Z,26.90
2023-05-05T11:57:30.473Z,26.91
2023-05-05T12:00:09.680Z,26.94
2023-05-05T12:02:44.094Z,26.93
2023-05-05T12:05:21.989Z,26.89
2023-05-05T12:07:58.718Z,26.96
2023-05-05T12:10:34.229Z,26.99
2023-05-05T12:13:04.337Z,26.91
2023-05-05T12:15:41.713Z,26.92
2023-05-05T12:18:21.622Z,26.97
2023-05-05T12:20:53.053Z,26.89
2023-05-05T12:23:21.492Z,26.83
2023-05-05T12:25:50.137Z,26.93
2023-05-05T12:28:23.083Z,26.83
2023-05-05T12:30:59.129Z,26.91
2023-05-05T12:33:39.096Z,26.93
2023-05-05T12:36:08.909Z,26.97
2023-05-05T12:38:42.471Z,26.97
2023-05-05T12:41:10.864Z,27.02
2023-05-05T12:43:39.944Z,27.05
2023-05-05T12:46:14.122Z,27.03
2023-05-05T12:48:48.195Z,27.06
2023-05-05T12:51:24.005Z,26.99
2023-05-05T12:54:07.578Z,27.02
2023-05-05T12:56:41.626Z,27.10
2023-05-05T12:59:13.105Z,27.17
2023-05-05T13:01:53.588Z,27.11
2023-05-05T13:04:26.602Z,27.13
2023-05-05T13:07:08.699Z,27.11
2023-05-05T13:09:41.592Z,27.06
2023-05-05T13:12:15.446Z,27.11
2023-05-05T13:14:50.568Z,27.07
2023-05-05T13:17:20.673Z,26.98
2023-05-05T13:19:54.288Z,26.98
2023-05-05T13:22:24.962Z,26.96
2023-05-05T13:25:06.042Z,26.93
2023-05-05T13:27:37.571Z,26.96
2023-05-05T13:30:18.562Z,27.00
2023-05-05T13:32:51.204Z,27.05
2023-05-05T13:35:25.007Z,27.09
2023-05-05T13:37:55.865Z,27.17
2023-05-05T13:40:25.737Z,27.19
2023-05-05T13:42:56.157Z,27.18
2023-05-05T13:45:25.504Z,27.20
2023-05-05T13:47:59.512Z,27.18
2023-05-05T13:50:35.122Z,27.04
2023-05-05T13:53:05.833Z,27.02
2023-05-05T13:55:39.272Z,27.25
2023-05-05T13:58:13.653Z,27.64
2023-05-05T14:00:41.372Z,28.00
2023-05-05T14:03:12.547Z,28.32
2023-05-05T14:05:48.206Z,28.54
2023-05-05T14:08:22.757Z,28.78
2023-05-05T14:10:52.165Z,29.28
2023-05-05T14:13:20.516Z,29.13
2023-05-05T14:15:50.474Z,29.45
2023-05-05T14:18:21.330Z,29.33
2023-05-05T14:20:51.804Z,29.30
2023-05-05T14:23:22.572Z,29.15
2023-05-05T14:25:55.489Z,29.49
2023-05-05T14:28:32.099Z,29.57
2023-05-05T14:31:03.209Z,30.02
2023-05-05T14:33:36.016Z,29.96
2023-05-05T14:36:07.209Z,30.03
2023-05-05T14:38:35.589Z,30.27
2023-05-05T14:41:11.194Z,29.94
2023-05-05T14:43:46.699Z,29.81
2023-05-05T14:46:19.107Z,29.53
2023-05-05T14:48:53.946Z,29.13
2023-05-05T14:51:24.415Z,28.88
2023-05-05T14:53:57.682Z,28.67
2023-05-05T14:56:34.516Z,28.54
2023-05-05T14:59:09.970Z,28.67
2023-05-05T15:01:43.785Z,28.69
2023-05-05T15:04:19.055Z,28.50
2023-05-05T15:06:55.684Z,28.68
2023-05-05T15:09:29.328Z,28.60
2023-05-05T15:12:02.704Z,28.63
2023-05-05T15:14:33.291Z,28.50
2023-05-05T15:17:03.849Z,28.35
2023-05-05T15:19:38.141Z,28.36
2023-05-05T15:22:12.020Z,28.20
2023-05-05T15:24:47.333Z,28.10
2023-05-05T15:27:23.117Z,28.04
2023-05-05T15:30:03.751Z,27.94
2023-05-05T15:32:37.111Z,27.98
2023-05-05T15:35:08.932Z,27.95
2023-05-05T15:37:42.854Z,28.02
2023-05-05T15:40:13.119Z,27.94
2023-05-05T15:42:46.494Z,27.93
2023-05-05T15:45:22.723Z,27.91
2023-05-05T15:47:51.136Z,27.90
2023-05-05T15:50:20.221Z,27.89
2023-05-05T15:52:50.725Z,27.84
2023-05-05T15:55:21.442Z,27.79
2023-05-05T15:57:54.837Z,27.80
2023-05-05T16:00:32.026Z,27.79
2023-05-05T16:03:03.580Z,27.79
2023-05-05T16:05:31.449Z,27.78
2023-05-05T16:08:01.856Z,27.74
2023-05-05T16:10:38.349Z,27.77
2023-05-05T16:13:06.369Z,27.68
2023-05-05T16:15:36.967Z,27.67
2023-05-05T16:18:04.554Z,27.69
2023-05-05T16:20:39.815Z,27.57
2023-05-05T16:23:10.462Z,27.56
2023-05-05T16:25:44.944Z,27.67
2023-05-05T16:28:15.497Z,27.59
2023-05-05T16:30:43.605Z,27.51
2023-05-05T16:33:11.478Z,27.38
2023-05-05T16:35:40.121Z,27.39
2023-05-05T16:38:10.104Z,27.43
2023-05-05T16:40:43.847Z,27.38
2023-05-05T16:43:19.732Z,27.35
2023-05-05T16:45:52.769Z,27.40
2023-05-05T16:48:28.667Z,27.43
2023-05-05T16:51:04.509Z,27.48
2023-05-05T16:53:48.264Z,27.51
2023-05-05T16:56:19.678Z,27.50
2023-05-05T16:58:54.373Z,27.43
2023-05-05T17:01:35.300Z,27.48
2023-05-05T17:04:08.125Z,27.47
2023-05-05T17:06:42.926Z,27.46
2023-05-05T17:09:16.175Z,27.47
2023-05-05T17:11:44.052Z,27.47
2023-05-05T17:14:19.333Z,27.45
2023-05-05T17:16:54.415Z,27.43
2023-05-05T17:19:28.232Z,27.44
2023-05-05T17:21:58.715Z,27.42
2023-05-05T17:24:37.306Z,27.42
2023-05-05T17:27:12.752Z,27.38
2023-05-05T17:29:45.650Z,27.40
2023-05-05T17:32:18.191Z,27.38
2023-05-05T17:34:56.949Z,27.38
2023-05-05T17:37:32.241Z,27.37
2023-05-05T17:40:05.092Z,27.37
2023-05-05T17:42:40.596Z,27.36
2023-05-05T17:45:11.748Z,27.34
2023-05-05T17:47:47.824Z,27.35
2023-05-05T17:50:20.921Z,27.34
2023-05-05T17:53:01.197Z,27.30
2023-05-05T17:55:37.328Z,27.30
2023-05-05T17:58:21.761Z,27.30
2023-05-05T18:00:52.367Z,27.31
2023-05-05T18:03:31.335Z,27.30
2023-05-05T18:06:07.871Z,27.31
2023-05-05T18:08:38.570Z,27.29
2023-05-05T18:11:21.356Z,27.26
2023-05-05T18:13:52.298Z,27.27
2023-05-05T18:16:23.028Z,27.25
2023-05-05T18:19:01.721Z,27.27
2023-05-05T18:21:37.532Z,27.24
2023-05-05T18:24:20.041Z,27.26
2023-05-05T18:27:03.184Z,27.26
2023-05-05T18:29:36.096Z,27.23
2023-05-05T18:32:06.891Z,27.22
2023-05-05T18:34:42.202Z,27.23
2023-05-05T18:37:23.137Z,27.21
2023-05-05T18:39:58.339Z,27.22
2023-05-05T18:42:34.736Z,27.20
2023-05-05T18:45:06.470Z,27.22
2023-05-05T18:47:50.625Z,27.21
2023-05-05T18:50:24.568Z,27.22
2023-05-05T18:52:55.894Z,27.20
2023-05-05T18:55:31.274Z,27.20
2023-05-05T18:58:05.653Z,27.18
2023-05-05T19:00:38.869Z,27.20
2023-05-05T19:03:14.975Z,27.20
2023-05-05T19:05:47.138Z,27.21
2023-05-05T19:08:30.621Z,27.17
2023-05-05T19:11:00.411Z,27.15
2023-05-05T19:13:41.867Z,27.16
2023-05-05T19:16:21.146Z,27.15
2023-05-05T19:18:54.604Z,27.13
2023-05-05T19:21:56.487Z,27.15
2023-05-05T19:24:26.695Z,27.12
2023-05-05T19:27:02.201Z,27.11
2023-05-05T19:29:53.571Z,27.11
2023-05-05T19:32:27.443Z,27.13
2023-05-05T19:34:58.385Z,27.15
2023-05-05T19:37:31.356Z,27.12
2023-05-05T19:40:04.762Z,27.10
2023-05-05T19:42:40.277Z,27.13
2023-05-05T19:45:13.993Z,27.15
2023-05-05T19:47:49.860Z,27.12
2023-05-05T19:50:26.744Z,27.11
2023-05-05T19:53:07.976Z,27.11
2023-05-05T19:55:46.048Z,27.09
2023-05-05T19:58:24.515Z,27.03
2023-05-05T20:00:57.823Z,27.03
2023-05-05T20:03:35.726Z,27.02
2023-05-05T20:06:06.488Z,27.00
2023-05-05T20:08:43.212Z,27.02
2023-05-05T20:11:18.305Z,26.95
2023-05-05T20:13:57.940Z,26.99
2023-05-05T20:16:25.905Z,26.97
2023-05-05T20:19:05.321Z,26.90
2023-05-05T20:21:41.403Z,26.90
2023-05-05T20:24:11.857Z,26.93
2023-05-05T20:26:54.041Z,26.94
2023-05-05T20:29:25.036Z,26.92
2023-05-05T20:31:58.295Z,26.93
2023-05-05T20:34:39.398Z,26.89
2023-05-05T20:37:11.722Z,26.86
2023-05-05T20:39:47.338Z,26.82
2023-05-05T20:42:20.649Z,26.82
2023-05-05T20:44:56.815Z,26.83
2023-05-05T20:47:29.785Z,26.83
2023-05-05T20:50:03.348Z,26.87
2023-05-05T20:52:45.824Z,26.85
2023-05-05T20:55:22.525Z,26.84
2023-05-05T20:57:54.754Z,26.81
2023-05-05T21:00:31.536Z,26.79
2023-05-05T21:03:12.766Z,26.80
2023-05-05T21:05:47.847Z,26.80
2023-05-05T21:08:23.506Z,26.78
2023-05-05T21:11:06.976Z,26.74
2023-05-05T21:13:42.813Z,26.76
2023-05-05T21:16:24.398Z,26.76
2023-05-05T21:18:57.140Z,26.76
2023-05-05T21:21:32.301Z,26.74
2023-05-05T21:24:10.745Z,26.75
2023-05-05T21:26:54.650Z,26.70
2023-05-05T21:29:25.436Z,26.69
2023-05-05T21:32:03.091Z,26.67
2023-05-05T21:34:38.836Z,26.67
2023-05-05T21:37:12.248Z,26.65
2023-05-05T21:39:45.184Z,26.67
2023-05-05T21:42:20.492Z,26.66
2023-05-05T21:44:57.072Z,26.66
2023-05-05T21:47:35.359Z,26.66
2023-05-05T21:50:12.284Z,26.64
2023-05-05T21:52:47.055Z,26.63
2023-05-05T21:55:17.682Z,26.62
2023-05-05T21:57:52.886Z,26.60
2023-05-05T22:00:24.764Z,26.60
2023-05-05T22:03:00.368Z,26.63
2023-05-05T22:05:37.004Z,26.59
2023-05-05T22:08:11.346Z,26.60
2023-05-05T22:10:47.561Z,26.59
2023-05-05T22:13:19.662Z,26.58
2023-05-05T22:15:59.880Z,26.58
2023-05-05T22:18:32.366Z,26.55
2023-05-05T22:21:11.029Z,26.57
2023-05-05T22:23:41.375Z,26.61
2023-05-05T22:26:19.322Z,26.57
2023-05-05T22:28:51.618Z,26.58
2023-05-05T22:31:26.969Z,26.56
2023-05-05T22:34:03.918Z,26.57
2023-05-05T22:36:37.165Z,26.58
2023-05-05T22:39:23.005Z,26.54
2023-05-05T22:42:01.778Z,26.54
2023-05-05T22:44:38.596Z,26.54
2023-05-05T22:47:11.655Z,26.55
2023-05-05T22:49:52.302Z,26.53
2023-05-05T22:52:30.606Z,26.52
2023-05-05T22:55:08.720Z,26.48
2023-05-05T22:57:44.680Z,26.48
2023-05-05T23:00:23.094Z,26.48
2023-05-05T23:02:56.476Z,26.48
2023-05-05T23:05:27.868Z,26.50
2023-05-05T23:08:00.585Z,26.47
2023-05-05T23:10:29.550Z,26.48
2023-05-05T23:13:04.842Z,26.49
2023-05-05T23:15:41.238Z,26.50
2023-05-05T23:18:14.643Z,26.50
2023-05-05T23:20:48.073Z,26.47
2023-05-05T23:23:26.103Z,26.48
2023-05-05T23:26:00.920Z,26.45
2023-05-05T23:28:37.222Z,26.46
2023-05-05T23:31:13.552Z,26.46
2023-05-05T23:33:54.544Z,26.41
2023-05-05T23:36:33.606Z,26.41
2023-05-05T23:39:07.536Z,26.39
2023-05-05T23:41:40.554Z,26.44
2023-05-05T23:44:15.901Z,26.41
2023-05-05T23:46:45.463Z,26.36
2023-05-05T23:49:26.058Z,26.36
2023-05-05T23:51:58.576Z,26.39
2023-05-05T23:54:31.872Z,26.36
2023-05-05T23:57:07.670Z,26.35
2023-05-05T23:59:45.203Z,26.35
